Trenton, Nebraska
Current Conditions -  °F | °C
As of 10:53 AM on Wednesday 26 Nov 2014 (Local Time) from KMCK Reporting Station
Overcast Overcast  
Wind Chill: 22°   Ceiling: 11000
Heat Index: 34°   Visibility: 10mi
Dew Point: 19°   Wind: 21mph
Humidity: 54%   Direction: 340°NNW
Pressure: 30.26"   Gusts: 29mph
Location:  40.18°N, 101.01°W
Report Text: KMCK 261653Z AUTO 34018G25KT 10SM OVC110 01/M07 A3026 RMK AO2 PK WND 34028/1554 SLP264 T00111072
Loading
Personal Weather Stations






























Interactive Weather Map New forecast layout! Learn more

10-Day Weather Forecast

Advertisements
Track Severe Weather on mobile